createdAt,value
2022-07-25T00:03:19.356Z,99281.48
2022-07-25T00:08:22.536Z,99285.06
2022-07-25T00:13:25.401Z,99280.00
2022-07-25T00:18:28.361Z,99279.80
2022-07-25T00:23:31.477Z,99277.42
2022-07-25T00:28:34.564Z,99273.98
2022-07-25T00:33:37.499Z,99271.38
2022-07-25T00:38:40.423Z,99267.13
2022-07-25T00:43:46.640Z,99268.02
2022-07-25T00:48:49.971Z,99270.86
2022-07-25T00:53:52.967Z,99265.58
2022-07-25T00:58:55.899Z,99263.26
2022-07-25T01:03:59.187Z,99265.85
2022-07-25T01:09:02.259Z,99259.35
2022-07-25T01:14:05.571Z,99253.94
2022-07-25T01:19:08.931Z,99252.91
2022-07-25T01:24:13.311Z,99249.20
2022-07-25T01:29:16.215Z,99247.25
2022-07-25T01:34:19.693Z,99244.77
2022-07-25T01:39:22.571Z,99246.09
2022-07-25T01:44:25.438Z,99247.98
2022-07-25T01:49:28.474Z,99241.09
2022-07-25T01:54:32.795Z,99240.15
2022-07-25T01:59:40.349Z,99245.39
2022-07-25T02:04:43.244Z,99247.59
2022-07-25T02:09:46.161Z,99245.90
2022-07-25T02:14:49.099Z,99243.63
2022-07-25T02:19:52.124Z,99238.91
2022-07-25T02:24:55.170Z,99240.16
2022-07-25T02:29:58.558Z,99239.81
2022-07-25T02:35:01.723Z,99239.70
2022-07-25T02:40:05.903Z,99238.85
2022-07-25T02:45:09.336Z,99238.61
2022-07-25T02:50:15.034Z,99236.42
2022-07-25T02:55:18.075Z,99237.81
2022-07-25T03:00:20.963Z,99233.31
2022-07-25T03:05:24.138Z,99241.34
2022-07-25T03:10:27.077Z,99238.48
2022-07-25T03:15:30.043Z,99234.56
2022-07-25T03:20:32.998Z,99242.28
2022-07-25T03:25:35.906Z,99246.52
2022-07-25T03:30:38.799Z,99256.98
2022-07-25T03:35:41.912Z,99260.71
2022-07-25T03:40:44.895Z,99258.20
2022-07-25T03:45:47.773Z,99258.82
2022-07-25T03:50:50.698Z,99254.42
2022-07-25T03:55:53.526Z,99255.31
2022-07-25T04:00:56.611Z,99253.84
2022-07-25T04:06:01.599Z,99253.23
2022-07-25T04:11:04.793Z,99248.45
2022-07-25T04:16:11.644Z,99241.67
2022-07-25T04:21:17.618Z,99244.30
2022-07-25T04:26:20.601Z,99236.83
2022-07-25T04:31:25.072Z,99238.52
2022-07-25T04:36:28.746Z,99229.05
2022-07-25T04:41:31.678Z,99220.20
2022-07-25T04:46:34.544Z,99222.60
2022-07-25T04:51:37.521Z,99217.52
2022-07-25T04:56:40.671Z,99217.90
2022-07-25T05:01:43.678Z,99211.98
2022-07-25T05:06:46.667Z,99211.37
2022-07-25T05:11:54.205Z,99205.32
2022-07-25T05:17:00.046Z,99213.56
2022-07-25T05:22:03.854Z,99207.64
2022-07-25T05:27:06.717Z,99198.16
2022-07-25T05:32:09.609Z,99194.10
2022-07-25T05:37:12.567Z,99190.13
2022-07-25T05:42:15.380Z,99190.23
2022-07-25T05:47:18.242Z,99188.55
2022-07-25T05:52:21.235Z,99186.83
2022-07-25T05:57:24.117Z,99179.63
2022-07-25T06:02:27.178Z,99183.86
2022-07-25T06:07:30.305Z,99182.82
2022-07-25T06:12:36.483Z,99180.58
2022-07-25T06:17:39.929Z,99182.27
2022-07-25T06:22:43.224Z,99180.33
2022-07-25T06:27:46.069Z,99179.20
2022-07-25T06:32:49.923Z,99174.73
2022-07-25T06:37:53.167Z,99172.72
2022-07-25T06:42:56.059Z,99164.61
2022-07-25T06:47:58.983Z,99156.40
2022-07-25T06:53:02.645Z,99147.42
2022-07-25T06:58:05.778Z,99141.41
2022-07-25T07:03:08.793Z,99138.29
2022-07-25T07:08:11.799Z,99127.93
2022-07-25T07:13:23.594Z,99123.13
2022-07-25T07:18:27.201Z,99116.69
2022-07-25T07:23:30.249Z,99107.48
2022-07-25T07:28:35.499Z,99108.60
2022-07-25T07:33:38.473Z,99109.95
2022-07-25T07:38:42.114Z,99110.48
2022-07-25T07:43:45.679Z,99109.79
2022-07-25T07:48:48.571Z,99108.09
2022-07-25T07:54:12.270Z,99106.52
2022-07-25T07:59:16.019Z,99106.63
2022-07-25T08:04:19.005Z,99105.10
2022-07-25T08:09:21.940Z,99103.20
2022-07-25T08:14:24.908Z,99101.86
2022-07-25T08:19:27.749Z,99100.04
2022-07-25T08:24:30.610Z,99096.05
2022-07-25T08:29:33.557Z,99099.31
2022-07-25T08:34:36.408Z,99100.72
2022-07-25T08:39:41.620Z,99098.11
2022-07-25T08:44:53.922Z,99093.31
2022-07-25T08:50:00.915Z,99083.55
2022-07-25T08:55:10.860Z,99075.95
2022-07-25T09:00:17.888Z,99074.93
2022-07-25T09:05:24.766Z,99077.70
2022-07-25T09:10:29.145Z,99070.19
2022-07-25T09:15:37.198Z,99069.86
2022-07-25T09:21:00.191Z,99070.40
2022-07-25T09:26:07.693Z,99061.81
2022-07-25T09:31:11.200Z,99054.40
2022-07-25T09:36:14.869Z,99051.52
2022-07-25T09:41:17.878Z,99051.30
2022-07-25T09:46:30.938Z,99049.60
2022-07-25T09:51:34.107Z,99037.50
2022-07-25T09:56:37.062Z,99034.77
2022-07-25T10:01:51.524Z,99032.20
2022-07-25T10:07:09.972Z,99025.86
2022-07-25T10:12:18.593Z,99015.52
2022-07-25T10:17:22.071Z,99011.40
2022-07-25T10:22:56.417Z,99013.14
2022-07-25T10:28:10.237Z,99005.29
2022-07-25T10:33:19.257Z,99007.50
2022-07-25T10:38:28.345Z,98999.14
2022-07-25T10:43:38.045Z,98991.75
2022-07-25T10:48:42.358Z,98983.67
2022-07-25T10:53:49.687Z,98980.26
2022-07-25T10:58:52.531Z,98974.20
2022-07-25T11:03:58.481Z,98970.31
2022-07-25T11:09:02.485Z,98961.77
2022-07-25T11:14:06.768Z,98958.94
2022-07-25T11:19:22.999Z,98951.21
2022-07-25T11:24:35.846Z,98940.30
2022-07-25T11:29:39.350Z,98935.16
2022-07-25T11:34:47.027Z,98925.22
2022-07-25T11:39:50.021Z,98919.17
2022-07-25T11:44:55.144Z,98912.46
2022-07-25T11:50:03.628Z,98910.20
2022-07-25T11:55:12.296Z,98903.10
2022-07-25T12:00:17.414Z,98896.98
2022-07-25T12:05:23.008Z,98887.14
2022-07-25T12:10:35.216Z,98879.14
2022-07-25T12:15:41.601Z,98875.05
2022-07-25T12:20:44.636Z,98865.95
2022-07-25T12:25:47.579Z,98861.14
2022-07-25T12:30:56.300Z,98853.67
2022-07-25T12:36:04.046Z,98847.30
2022-07-25T12:41:10.897Z,98838.00
2022-07-25T12:46:16.973Z,98832.98
2022-07-25T12:51:20.496Z,98829.06
2022-07-25T12:56:23.390Z,98821.33
2022-07-25T13:01:26.366Z,98820.59
2022-07-25T13:06:29.670Z,98814.94
2022-07-25T13:11:32.535Z,98812.48
2022-07-25T13:16:38.004Z,98803.97
2022-07-25T13:21:41.304Z,98797.20
2022-07-25T13:26:44.734Z,98781.31
2022-07-25T13:31:47.872Z,98777.71
2022-07-25T13:36:50.712Z,98772.36
2022-07-25T13:41:53.933Z,98763.69
2022-07-25T13:46:58.757Z,98758.55
2022-07-25T13:52:01.709Z,98755.37
2022-07-25T13:57:04.928Z,98750.34
2022-07-25T14:02:07.871Z,98745.39
2022-07-25T14:07:10.880Z,98738.94
2022-07-25T14:12:13.767Z,98733.96
2022-07-25T14:17:17.078Z,98727.56
2022-07-25T14:22:20.098Z,98723.55
2022-07-25T14:27:23.292Z,98717.52
2022-07-25T14:32:26.465Z,98713.99
2022-07-25T14:37:31.627Z,98708.60
2022-07-25T14:42:34.512Z,98702.79
2022-07-25T14:47:40.229Z,98691.41
2022-07-25T14:52:43.287Z,98683.85
2022-07-25T14:57:46.125Z,98682.73
2022-07-25T15:02:49.104Z,98675.42
2022-07-25T15:07:52.066Z,98666.45
2022-07-25T15:13:14.014Z,98662.88
2022-07-25T15:18:17.967Z,98658.54
2022-07-25T15:23:23.366Z,98651.81
2022-07-25T15:28:26.420Z,98647.31
2022-07-25T15:33:29.357Z,98646.82
2022-07-25T15:38:32.445Z,98645.50
2022-07-25T15:43:35.308Z,98644.55
2022-07-25T15:48:38.786Z,98635.94
2022-07-25T15:53:41.845Z,98629.49
2022-07-25T15:58:47.271Z,98624.51
2022-07-25T16:03:50.274Z,98620.61
2022-07-25T16:08:53.245Z,98613.80
2022-07-25T16:14:02.058Z,98610.72
2022-07-25T16:19:05.220Z,98604.63
2022-07-25T16:24:10.744Z,98604.34
2022-07-25T16:29:13.814Z,98600.58
2022-07-25T16:34:16.685Z,98602.31
2022-07-25T16:39:21.842Z,98602.52
2022-07-25T16:44:24.768Z,98597.38
2022-07-25T16:49:27.988Z,98596.23
2022-07-25T16:54:30.875Z,98596.66
2022-07-25T16:59:33.745Z,98591.09
2022-07-25T17:04:37.766Z,98592.62
2022-07-25T17:09:40.995Z,98592.27
2022-07-25T17:14:44.682Z,98589.61
2022-07-25T17:19:47.837Z,98585.29
2022-07-25T17:24:50.911Z,98582.19
2022-07-25T17:29:53.815Z,98581.09
2022-07-25T17:35:01.876Z,98576.41
2022-07-25T17:40:07.032Z,98575.95
2022-07-25T17:45:10.786Z,98573.97
2022-07-25T17:50:14.440Z,98573.23
2022-07-25T17:55:17.592Z,98567.41
2022-07-25T18:00:22.707Z,98559.86
2022-07-25T18:05:25.808Z,98557.55
2022-07-25T18:10:28.814Z,98560.26
2022-07-25T18:15:31.815Z,98563.20
2022-07-25T18:20:35.272Z,98559.84
2022-07-25T18:25:38.260Z,98554.61
2022-07-25T18:30:41.247Z,98554.59
2022-07-25T18:35:44.181Z,98552.73
2022-07-25T18:40:47.116Z,98550.59
2022-07-25T18:45:50.869Z,98549.58
2022-07-25T18:50:54.308Z,98544.56
2022-07-25T18:55:57.189Z,98539.46
2022-07-25T19:01:00.115Z,98543.04
2022-07-25T19:06:04.935Z,98540.53
2022-07-25T19:11:08.625Z,98538.75
2022-07-25T19:16:12.096Z,98541.44
2022-07-25T19:21:15.591Z,98538.44
2022-07-25T19:26:20.136Z,98539.30
2022-07-25T19:31:23.263Z,98536.83
2022-07-25T19:36:26.227Z,98529.50
2022-07-25T19:41:30.638Z,98531.84
2022-07-25T19:46:34.351Z,98527.86
2022-07-25T19:51:38.042Z,98523.66
2022-07-25T19:56:40.969Z,98521.65
2022-07-25T20:01:43.945Z,98520.91
2022-07-25T20:06:46.886Z,98516.89
2022-07-25T20:11:49.913Z,98512.00
2022-07-25T20:16:52.948Z,98505.46
2022-07-25T20:21:57.105Z,98504.16
2022-07-25T20:27:00.663Z,98501.08
2022-07-25T20:32:03.930Z,98498.39
2022-07-25T20:37:06.896Z,98498.46
2022-07-25T20:42:09.783Z,98499.70
2022-07-25T20:47:14.899Z,98501.86
2022-07-25T20:52:18.415Z,98501.38
2022-07-25T20:57:22.569Z,98498.42
2022-07-25T21:02:25.636Z,98495.38
2022-07-25T21:07:28.496Z,98498.13
2022-07-25T21:12:33.013Z,98496.03
2022-07-25T21:17:36.177Z,98502.77
2022-07-25T21:22:40.469Z,98499.63
2022-07-25T21:27:43.879Z,98495.55
2022-07-25T21:32:46.845Z,98498.63
2022-07-25T21:37:49.811Z,98494.69
2022-07-25T21:42:52.889Z,98501.56
2022-07-25T21:47:55.839Z,98503.16
2022-07-25T21:53:01.388Z,98502.39
2022-07-25T21:58:05.522Z,98504.16
2022-07-25T22:03:08.415Z,98502.81
2022-07-25T22:08:11.423Z,98500.86
2022-07-25T22:13:14.312Z,98501.58
2022-07-25T22:18:17.191Z,98492.43
2022-07-25T22:23:20.250Z,98487.02
2022-07-25T22:28:23.278Z,98479.19
2022-07-25T22:33:28.687Z,98477.73
2022-07-25T22:38:31.700Z,98475.31
2022-07-25T22:43:57.926Z,98469.86
2022-07-25T22:48:58.670Z,98453.76
2022-07-25T22:54:02.933Z,98449.98
2022-07-25T22:59:06.180Z,98438.81
2022-07-25T23:04:09.568Z,98435.22
2022-07-25T23:09:13.680Z,98427.08
2022-07-25T23:14:17.041Z,98420.02
2022-07-25T23:19:19.984Z,98421.88
2022-07-25T23:24:25.384Z,98412.48
2022-07-25T23:29:28.375Z,98414.36
2022-07-25T23:34:31.506Z,98406.48
2022-07-25T23:39:34.441Z,98398.05
2022-07-25T23:44:38.004Z,98392.05
2022-07-25T23:49:41.619Z,98407.95
2022-07-25T23:54:44.661Z,98411.91
2022-07-25T23:59:47.573Z,98419.48
